Time;durP1;ratioP1;P1;durP2;ratioP2;P2;SDS_P1;SDS_P2;PMS_P1;PMS_P2;Temp;Humidity;BMP_temperature;BMP_pressure;BME280_temperature;BME280_humidity;BME280_pressure;Samples;Min_cycle;Max_cycle;Signal;HPM_P1;HPM_P2
2022/04/28 00:01:01;;;;;;;5.43;3.78;;;;;;;13.49;58.26;101700.66;4951594;28;20070;-85
2022/04/28 00:03:27;;;;;;;4.70;3.70;;;;;;;14.19;59.10;101854.03;4949878;28;20055;-86
2022/04/28 00:05:55;;;;;;;4.13;3.58;;;;;;;13.29;59.91;101721.81;4966284;28;20261;-87
2022/04/28 00:08:22;;;;;;;4.35;2.90;;;;;;;12.50;59.61;101583.47;4950140;28;20106;-86
2022/04/28 00:10:49;;;;;;;4.28;2.97;;;;;;;13.40;59.47;101726.28;4951741;28;20052;-86
2022/04/28 00:13:17;;;;;;;5.03;3.30;;;;;;;13.85;59.39;101793.63;4951201;28;20058;-85
2022/04/28 00:15:44;;;;;;;5.10;3.75;;;;;;;13.22;59.47;101696.59;4949600;28;20051;-86
2022/04/28 00:18:11;;;;;;;5.78;3.25;;;;;;;14.10;59.59;101843.16;4949498;28;20616;-86
2022/04/28 00:20:37;;;;;;;3.05;2.67;;;;;;;14.08;60.13;101846.94;4949692;28;20043;-86
2022/04/28 00:23:04;;;;;;;4.90;2.65;;;;;;;14.07;59.52;101842.53;4951731;28;20062;-86
2022/04/28 00:25:31;;;;;;;7.45;2.80;;;;;;;14.10;59.92;101851.16;4951164;28;20059;-87
2022/04/28 00:27:58;;;;;;;5.63;3.20;;;;;;;13.99;60.07;101837.00;4949459;28;20058;-84
2022/04/28 00:30:25;;;;;;;4.07;2.55;;;;;;;14.00;60.09;101844.03;4949863;28;20051;-84
2022/04/28 00:32:52;;;;;;;3.58;2.95;;;;;;;13.66;59.90;101785.47;4949166;28;20529;-85
2022/04/28 00:35:19;;;;;;;3.45;2.75;;;;;;;13.95;60.65;101833.72;4950949;28;20047;-86
2022/04/28 00:37:46;;;;;;;3.35;2.60;;;;;;;14.04;60.27;101842.81;4949858;28;20540;-84
2022/04/28 00:40:13;;;;;;;3.33;2.97;;;;;;;13.92;59.44;101798.44;4949794;28;20058;-84
2022/04/28 00:42:40;;;;;;;2.95;2.60;;;;;;;13.55;59.92;101750.84;4949716;28;20051;-86
2022/04/28 00:45:07;;;;;;;3.83;2.72;;;;;;;14.16;59.75;101838.25;4950653;28;20070;-86
2022/04/28 00:50:38;;;;;;;5.18;2.70;;;;;;;13.72;59.11;101744.94;4950214;28;20051;-86
2022/04/28 00:53:09;;;;;;;2.53;2.03;;;;;;;13.38;58.97;101713.06;4950520;28;20059;-86
2022/04/28 00:55:36;;;;;;;3.15;2.45;;;;;;;13.50;58.87;101713.88;4948514;28;20051;-85
2022/04/28 00:58:03;;;;;;;3.78;2.30;;;;;;;14.13;58.67;101833.16;4948590;28;20047;-85
2022/04/28 01:00:29;;;;;;;3.50;3.20;;;;;;;14.18;58.92;101831.81;4948543;28;20046;-85
2022/04/28 01:02:56;;;;;;;2.58;2.20;;;;;;;14.25;58.62;101826.81;4948199;28;20071;-86
2022/04/28 01:05:23;;;;;;;3.00;2.60;;;;;;;13.97;59.00;101822.94;4948643;28;20133;-85
2022/04/28 01:07:50;;;;;;;2.63;2.42;;;;;;;13.88;59.45;101829.88;4948597;28;20051;-85
2022/04/28 01:10:17;;;;;;;4.55;2.75;;;;;;;13.59;59.65;101787.81;4948154;28;20062;-85
2022/04/28 01:12:44;;;;;;;2.63;2.40;;;;;;;13.91;59.29;101818.97;4948446;28;20059;-85
2022/04/28 01:15:11;;;;;;;5.78;2.78;;;;;;;13.94;59.03;101825.88;4947859;28;20047;-85
2022/04/28 01:17:37;;;;;;;3.45;2.38;;;;;;;13.82;59.61;101819.72;4949711;28;20424;-85
2022/04/28 01:20:04;;;;;;;4.00;2.25;;;;;;;13.77;58.75;101808.59;4947908;28;20062;-85
2022/04/28 01:22:31;;;;;;;4.95;2.60;;;;;;;13.58;59.35;101807.44;4949670;28;20066;-85
2022/04/28 01:25:07;;;;;;;2.90;2.67;;;;;;;13.63;59.36;101815.06;4949292;28;20249;-86
2022/04/28 01:27:35;;;;;;;5.55;2.33;;;;;;;13.62;59.28;101813.38;4949753;28;20062;-85
2022/04/28 01:30:14;;;;;;;3.90;2.30;;;;;;;13.08;58.96;101724.38;4948498;28;20047;-86
2022/04/28 01:32:41;;;;;;;2.13;1.92;;;;;;;13.34;58.55;101761.44;4949074;28;20389;-85
2022/04/28 01:35:09;;;;;;;3.17;2.35;;;;;;;13.62;58.05;101794.72;4949115;28;20054;-85
2022/04/28 01:37:35;;;;;;;2.40;2.08;;;;;;;13.41;58.87;101779.47;4948007;28;20066;-85
2022/04/28 01:40:06;;;;;;;2.67;2.05;;;;;;;13.10;58.53;101745.59;4948055;28;20058;-85
2022/04/28 01:42:32;;;;;;;2.90;1.88;;;;;;;13.24;58.79;101780.00;4947958;28;20462;-85
2022/04/28 01:44:59;;;;;;;3.08;2.15;;;;;;;13.24;58.35;101767.50;4947668;28;20051;-85
2022/04/28 01:47:26;;;;;;;3.53;2.05;;;;;;;13.68;58.68;101826.22;4948788;28;20087;-85
2022/04/28 01:49:52;;;;;;;2.38;1.77;;;;;;;13.46;58.49;101806.63;4948054;28;20046;-85
2022/04/28 01:55:05;;;;;;;3.65;1.98;;;;;;;13.18;58.30;101762.69;4949513;28;20295;-85
2022/04/28 01:57:31;;;;;;;3.08;2.00;;;;;;;12.91;57.80;101708.94;4949753;28;20383;-84
2022/04/28 01:59:58;;;;;;;3.67;2.10;;;;;;;13.15;58.67;101754.91;4953980;28;20070;-86
2022/04/28 02:02:25;;;;;;;2.45;2.20;;;;;;;13.37;58.46;101803.88;4955287;28;20063;-85
2022/04/28 02:04:58;;;;;;;1.65;1.55;;;;;;;13.33;58.30;101792.63;4949458;28;20062;-85
2022/04/28 02:07:26;;;;;;;4.20;1.50;;;;;;;13.18;58.14;101752.03;4948190;28;20110;-85
2022/04/28 02:09:53;;;;;;;2.13;1.63;;;;;;;13.14;57.94;101749.72;4947806;28;20079;-85
2022/04/28 02:12:20;;;;;;;2.35;1.85;;;;;;;13.37;57.65;101793.19;4947122;28;20047;-85
2022/04/28 02:14:47;;;;;;;2.05;1.85;;;;;;;13.53;58.36;101819.47;4948479;28;20055;-84
2022/04/28 02:17:18;;;;;;;3.95;1.67;;;;;;;13.23;58.31;101780.97;4947779;28;20511;-84
2022/04/28 02:19:45;;;;;;;2.17;1.90;;;;;;;13.55;58.48;101814.88;4947011;28;20046;-85
2022/04/28 02:22:12;;;;;;;3.42;1.90;;;;;;;13.13;57.86;101745.34;4947714;29;20073;-85
2022/04/28 02:24:39;;;;;;;1.90;1.73;;;;;;;13.56;57.85;101813.88;4948365;28;20062;-84
2022/04/28 02:27:06;;;;;;;3.55;1.63;;;;;;;13.36;57.75;101781.69;4946579;28;20047;-84
2022/04/28 02:29:33;;;;;;;3.50;1.80;;;;;;;13.59;57.58;101816.28;4948419;28;20535;-86
2022/04/28 02:32:01;;;;;;;2.05;1.75;;;;;;;13.55;57.64;101807.69;4947734;28;20047;-85
2022/04/28 02:34:28;;;;;;;2.15;1.60;;;;;;;13.21;56.88;101738.44;4947432;28;20084;-85
2022/04/28 02:36:55;;;;;;;1.67;1.58;;;;;;;13.33;57.53;101771.28;4947154;28;20497;-85
2022/04/28 02:39:21;;;;;;;2.45;1.50;;;;;;;13.54;57.49;101805.16;4947416;28;20363;-85
2022/04/28 02:41:48;;;;;;;1.55;1.45;;;;;;;13.39;56.79;101776.09;4948333;28;20047;-84
2022/04/28 02:44:15;;;;;;;3.67;1.63;;;;;;;13.32;56.82;101758.91;4948171;28;20059;-85
2022/04/28 02:46:48;;;;;;;2.38;1.70;;;;;;;13.27;56.76;101755.75;4947175;28;20086;-85
2022/04/28 02:49:16;;;;;;;1.42;1.33;;;;;;;13.63;56.51;101809.72;4948511;28;20061;-85
2022/04/28 02:51:42;;;;;;;2.00;1.80;;;;;;;12.65;56.91;101652.44;4946992;28;20478;-85
2022/04/28 02:54:09;;;;;;;2.13;1.60;;;;;;;12.49;56.81;101627.03;4946841;28;20051;-85
2022/04/28 02:56:36;;;;;;;4.28;1.48;;;;;;;12.76;56.02;101663.06;4946859;28;20422;-85
2022/04/28 02:59:03;;;;;;;2.13;1.50;;;;;;;13.44;56.17;101768.56;4948662;28;20047;-85
2022/04/28 03:01:30;;;;;;;1.40;1.30;;;;;;;13.39;56.50;101760.09;4952527;28;20047;-84
2022/04/28 03:03:57;;;;;;;1.42;1.33;;;;;;;13.79;55.66;101810.16;4967304;28;20061;-86
2022/04/28 03:11:56;;;;;;;2.22;1.67;;;;;;;13.52;54.96;101741.28;4948708;28;20059;-85
2022/04/28 03:14:24;;;;;;;1.83;1.20;;;;;;;13.76;55.85;101817.56;4946948;28;20051;-85
2022/04/28 03:16:50;;;;;;;2.33;1.30;;;;;;;13.48;56.46;101785.16;4948618;28;20051;-85
2022/04/28 03:19:17;;;;;;;1.67;1.48;;;;;;;13.51;56.80;101800.06;4947033;28;20055;-85
2022/04/28 03:21:44;;;;;;;2.55;1.35;;;;;;;13.46;56.97;101797.78;4947325;28;20066;-84
2022/04/28 03:24:11;;;;;;;2.60;1.33;;;;;;;13.41;57.68;101816.00;4947077;28;20051;-84
2022/04/28 03:26:39;;;;;;;1.95;1.60;;;;;;;13.15;57.19;101784.25;4948875;28;20059;-85
2022/04/28 03:29:06;;;;;;;1.75;1.40;;;;;;;12.41;57.92;101674.75;4949137;28;20170;-84
2022/04/28 03:31:33;;;;;;;2.35;1.42;;;;;;;13.22;58.32;101817.44;4948687;28;20147;-84
2022/04/28 03:33:59;;;;;;;1.30;1.20;;;;;;;13.19;57.83;101811.53;4947131;28;20057;-84
2022/04/28 03:39:12;;;;;;;2.25;1.20;;;;;;;13.00;58.17;101782.81;4951346;28;20498;-84
2022/04/28 03:41:38;;;;;;;1.80;1.33;;;;;;;13.22;58.63;101821.94;4950391;28;20047;-85
2022/04/28 03:44:05;;;;;;;1.63;1.42;;;;;;;13.25;58.37;101835.00;4950328;28;20060;-85
2022/04/28 03:46:32;;;;;;;3.05;1.40;;;;;;;13.22;58.28;101832.59;4949966;28;20465;-84
2022/04/28 03:48:58;;;;;;;2.35;2.25;;;;;;;13.09;58.58;101810.56;4951287;28;20107;-85
2022/04/28 03:51:25;;;;;;;1.52;1.33;;;;;;;12.32;58.11;101694.09;4949807;28;20250;-85
2022/04/28 03:53:52;;;;;;;1.73;1.63;;;;;;;12.61;58.29;101755.72;4965924;28;20058;-86
2022/04/28 03:56:19;;;;;;;1.38;1.27;;;;;;;12.64;58.35;101763.47;4950775;28;20126;-86
2022/04/28 03:58:45;;;;;;;2.92;1.58;;;;;;;11.46;58.60;101581.06;4950190;28;20103;-84
2022/04/28 04:01:12;;;;;;;2.22;2.03;;;;;;;11.92;58.06;101666.16;4966049;28;20070;-83
2022/04/28 04:03:39;;;;;;;4.43;2.00;;;;;;;12.28;58.59;101712.16;4949818;28;20311;-86
2022/04/28 04:06:06;;;;;;;1.95;1.70;;;;;;;12.99;59.20;101832.63;4948865;28;20067;-85
2022/04/28 04:08:32;;;;;;;4.15;1.73;;;;;;;12.95;59.05;101830.31;4933693;29;20421;-85
2022/04/28 04:10:59;;;;;;;2.95;2.50;;;;;;;13.05;59.40;101841.94;4931303;29;20058;-85
2022/04/28 04:13:26;;;;;;;2.65;2.22;;;;;;;12.98;59.54;101846.91;4930563;29;20062;-85
2022/04/28 04:15:53;;;;;;;4.40;2.42;;;;;;;12.88;60.23;101834.44;4930898;29;20094;-85
2022/04/28 04:18:19;;;;;;;4.90;2.50;;;;;;;12.99;60.10;101856.63;4933133;29;20586;-85
2022/04/28 04:20:46;;;;;;;5.30;3.47;;;;;;;12.97;60.11;101855.88;4934438;28;20056;-85
2022/04/28 04:23:13;;;;;;;3.47;2.58;;;;;;;12.97;60.08;101855.03;4947848;28;20066;-85
2022/04/28 04:25:40;;;;;;;3.60;2.78;;;;;;;12.96;60.43;101864.88;4967508;28;20055;-85
2022/04/28 04:28:06;;;;;;;3.22;2.55;;;;;;;12.70;60.37;101818.09;4967155;28;20306;-85
2022/04/28 04:33:18;;;;;;;3.50;2.92;;;;;;;12.87;61.43;101865.59;4968160;28;20064;-87
2022/04/28 04:35:45;;;;;;;10.70;3.53;;;;;;;12.86;61.45;101863.88;4966892;28;20057;-85
2022/04/28 04:38:12;;;;;;;4.47;3.25;;;;;;;12.89;61.47;101863.66;4966303;28;20054;-85
2022/04/28 04:40:42;;;;;;;5.10;3.00;;;;;;;12.60;61.38;101828.63;4967445;28;20466;-85
2022/04/28 04:43:13;;;;;;;7.43;3.00;;;;;;;12.95;61.06;101868.47;4966749;28;20075;-85
2022/04/28 04:45:43;;;;;;;3.00;2.70;;;;;;;12.56;61.78;101820.03;4968846;28;20057;-86
2022/04/28 04:48:11;;;;;;;3.25;2.80;;;;;;;12.52;61.34;101813.22;4967220;28;20134;-85
2022/04/28 04:50:39;;;;;;;3.83;2.78;;;;;;;11.82;61.37;101714.81;4967779;28;20069;-85
2022/04/28 04:53:06;;;;;;;6.13;2.95;;;;;;;12.86;61.42;101884.34;4966981;28;20126;-85
2022/04/28 04:55:34;;;;;;;8.50;3.65;;;;;;;12.79;61.38;101883.97;4968207;28;20405;-85
2022/04/28 04:58:01;;;;;;;6.80;3.17;;;;;;;12.22;61.37;101789.00;4968107;28;20046;-85
2022/04/28 05:00:28;;;;;;;5.43;3.25;;;;;;;12.75;61.53;101877.22;4966689;28;20070;-86
2022/04/28 05:02:54;;;;;;;4.85;4.03;;;;;;;12.25;61.16;101791.41;4966571;28;20160;-85
2022/04/28 05:05:21;;;;;;;5.68;3.30;;;;;;;12.72;61.85;101864.09;4982623;28;20101;-85
2022/04/28 05:07:48;;;;;;;7.53;3.13;;;;;;;12.25;62.07;101788.75;4967262;28;20058;-85
2022/04/28 05:10:15;;;;;;;5.60;3.90;;;;;;;12.86;62.14;101898.53;4966380;28;20061;-85
2022/04/28 05:12:42;;;;;;;3.95;3.33;;;;;;;12.69;61.50;101856.34;4928726;29;20059;-86
2022/04/28 05:15:09;;;;;;;6.93;3.67;;;;;;;12.69;61.38;101846.53;4928469;29;20054;-84
2022/04/28 05:17:36;;;;;;;7.05;3.67;;;;;;;12.97;60.97;101885.22;4948636;28;20055;-85
2022/04/28 05:20:04;;;;;;;10.52;3.83;;;;;;;13.21;60.76;101901.09;4964009;28;20493;-85
2022/04/28 05:22:31;;;;;;;5.18;3.55;;;;;;;12.56;60.49;101793.38;4948727;28;20051;-85
2022/04/28 05:24:58;;;;;;;6.28;4.30;;;;;;;13.09;60.18;101874.56;4948439;28;20055;-84
2022/04/28 05:27:25;;;;;;;5.85;3.78;;;;;;;12.04;60.22;101690.97;4948928;28;20335;-86
2022/04/28 05:29:52;;;;;;;4.47;3.58;;;;;;;12.87;59.99;101822.09;4931717;29;20059;-83
2022/04/28 05:32:19;;;;;;;6.00;3.60;;;;;;;13.44;60.47;101907.25;4948362;28;20553;-85
2022/04/28 05:34:46;;;;;;;4.22;3.85;;;;;;;13.43;59.90;101900.25;4946797;28;20490;-85
2022/04/28 05:37:13;;;;;;;4.70;3.60;;;;;;;13.17;59.79;101843.63;4947251;28;20369;-83
2022/04/28 05:39:42;;;;;;;4.95;3.45;;;;;;;13.56;59.34;101909.94;4947326;28;20058;-84
2022/04/28 05:42:09;;;;;;;4.25;3.83;;;;;;;13.38;59.29;101875.75;4946832;28;20482;-84
2022/04/28 05:47:24;;;;;;;6.50;4.15;;;;;;;13.39;59.00;101884.63;4948019;28;20062;-82
2022/04/28 05:49:52;;;;;;;7.72;4.40;;;;;;;13.61;58.99;101921.91;4948020;28;20053;-84
2022/04/28 05:52:18;;;;;;;4.35;3.95;;;;;;;13.55;59.53;101908.25;4946341;28;20376;-84
2022/04/28 05:54:45;;;;;;;5.82;3.78;;;;;;;13.58;59.79;101913.31;4947245;28;20210;-84
2022/04/28 05:57:12;;;;;;;4.63;4.07;;;;;;;13.69;59.08;101932.00;4946367;28;20054;-83
2022/04/28 05:59:40;;;;;;;6.18;4.63;;;;;;;13.70;59.63;101938.19;4946810;28;20047;-82
2022/04/28 06:02:07;;;;;;;6.63;4.18;;;;;;;13.00;59.98;101810.31;4946008;28;20235;-84
2022/04/28 06:04:34;;;;;;;6.07;4.50;;;;;;;13.08;59.83;101822.19;4947244;28;20051;-84
2022/04/28 06:07:01;;;;;;;5.20;4.53;;;;;;;13.65;59.72;101901.19;4946571;28;20058;-84
2022/04/28 06:09:28;;;;;;;7.88;4.75;;;;;;;13.68;59.67;101916.94;4947976;28;20501;-83
2022/04/28 06:11:55;;;;;;;10.38;5.13;;;;;;;13.98;59.66;101950.09;4946421;28;20058;-84
2022/04/28 06:14:21;;;;;;;5.55;5.03;;;;;;;13.86;59.58;101933.28;4946708;28;20441;-85
2022/04/28 06:16:50;;;;;;;7.50;5.13;;;;;;;14.07;59.03;101954.69;4948838;28;20083;-83
2022/04/28 06:19:19;;;;;;;6.05;5.10;;;;;;;13.93;59.00;101928.28;4949864;28;20055;-83
2022/04/28 06:21:46;;;;;;;11.05;5.57;;;;;;;13.88;58.65;101909.97;4948470;28;20544;-82
2022/04/28 06:24:12;;;;;;;7.30;5.80;;;;;;;14.14;58.54;101953.22;4948358;28;21273;-84
2022/04/28 06:26:39;;;;;;;6.75;5.85;;;;;;;13.96;58.94;101918.22;4946567;28;20130;-85
2022/04/28 06:29:06;;;;;;;21.23;7.25;;;;;;;14.33;58.89;101932.00;4947160;28;20066;-83
2022/04/28 06:31:32;;;;;;;42.53;8.77;;;;;;;14.44;59.26;101954.28;4962739;28;20477;-83
2022/04/28 06:33:59;;;;;;;11.23;6.32;;;;;;;14.49;59.49;101965.44;4967101;28;20493;-84
2022/04/28 06:36:26;;;;;;;10.95;6.20;;;;;;;14.36;59.35;101938.06;4966116;28;20061;-84
2022/04/28 06:38:52;;;;;;;7.55;6.57;;;;;;;14.23;59.75;101912.38;4948177;28;20204;-84
2022/04/28 06:41:19;;;;;;;7.30;6.38;;;;;;;14.71;59.24;101961.88;4945721;28;20063;-84
2022/04/28 06:43:46;;;;;;;9.63;6.28;;;;;;;14.36;59.57;101933.56;4945670;28;20076;-83
2022/04/28 06:46:12;;;;;;;7.60;6.78;;;;;;;14.63;59.40;101969.66;4946550;28;20268;-84
2022/04/28 06:48:39;;;;;;;9.00;6.70;;;;;;;14.18;59.49;101884.38;4947376;28;20353;-84
2022/04/28 06:51:06;;;;;;;6.55;5.80;;;;;;;14.83;59.38;101978.66;4948090;28;20055;-84
2022/04/28 06:53:33;;;;;;;9.05;6.40;;;;;;;14.72;58.60;101959.03;4967353;28;20059;-83
2022/04/28 06:56:00;;;;;;;6.78;6.13;;;;;;;14.90;58.60;101979.84;4963382;28;20035;-84
2022/04/28 06:58:26;;;;;;;6.28;5.68;;;;;;;14.94;58.41;101978.59;4971979;28;20082;-84
2022/04/28 07:00:53;;;;;;;5.40;4.63;;;;;;;15.00;57.58;101977.22;4963753;28;20047;-83
2022/04/28 07:03:20;;;;;;;5.07;4.68;;;;;;;14.99;57.16;101965.69;4949185;28;20066;-84
2022/04/28 07:05:47;;;;;;;6.07;4.45;;;;;;;15.09;56.99;101968.41;4948150;29;20044;-84
2022/04/28 07:08:14;;;;;;;7.45;5.40;;;;;;;14.72;56.99;101905.59;4949614;28;20055;-84
2022/04/28 07:10:41;;;;;;;5.43;4.95;;;;;;;14.98;57.42;101957.78;4948657;28;20059;-84
2022/04/28 07:13:11;;;;;;;6.63;5.38;;;;;;;14.92;57.93;101969.88;4949309;28;20047;-83
2022/04/28 07:15:38;;;;;;;7.28;5.57;;;;;;;15.12;58.06;101993.09;4956353;28;20047;-85
2022/04/28 07:18:06;;;;;;;5.78;5.18;;;;;;;15.13;58.61;102000.13;4955432;28;20047;-83
2022/04/28 07:20:34;;;;;;;6.38;5.70;;;;;;;15.01;58.64;101963.72;4961421;28;20398;-84
2022/04/28 07:23:01;;;;;;;13.93;6.25;;;;;;;15.23;58.65;102000.16;4975077;28;20147;-84
2022/04/28 07:25:30;;;;;;;7.70;6.38;;;;;;;15.13;58.35;101943.94;4974034;28;20133;-84
2022/04/28 07:27:57;;;;;;;9.10;6.25;;;;;;;15.41;57.97;101970.94;4974437;28;20058;-84
2022/04/28 07:30:25;;;;;;;10.02;7.07;;;;;;;15.24;58.49;101947.50;4973922;28;20051;-84
2022/04/28 07:32:53;;;;;;;11.10;6.28;;;;;;;15.49;58.55;102000.56;4974931;28;20106;-84
2022/04/28 07:35:23;;;;;;;10.73;7.40;;;;;;;15.44;59.32;101986.75;4973421;28;20054;-84
2022/04/28 07:37:51;;;;;;;7.28;6.60;;;;;;;14.43;59.54;101808.34;4972670;28;20042;-84
2022/04/28 07:40:24;;;;;;;9.10;7.30;;;;;;;15.33;59.38;101952.06;4971433;28;20490;-85
2022/04/28 07:42:51;;;;;;;6.97;5.75;;;;;;;15.84;57.62;102004.66;4972230;28;20477;-85
2022/04/28 07:45:18;;;;;;;7.72;4.40;;;;;;;15.92;56.27;102007.53;4971273;28;20050;-84
2022/04/28 07:47:45;;;;;;;5.28;4.60;;;;;;;15.87;55.21;101982.13;4972148;28;20050;-83
2022/04/28 07:50:15;;;;;;;4.60;4.20;;;;;;;15.94;54.57;101984.09;4970832;28;20050;-84
2022/04/28 07:52:43;;;;;;;4.40;4.00;;;;;;;15.98;55.15;101979.34;4987840;28;20050;-84
2022/04/28 07:55:10;;;;;;;4.40;4.00;;;;;;;16.31;54.30;102015.63;4972349;28;20050;-85
2022/04/28 07:57:55;;;;;;;4.85;3.88;;;;;;;16.32;53.27;102009.28;4972274;28;20046;-84
2022/04/28 08:00:22;;;;;;;4.65;3.70;;;;;;;16.23;53.49;101985.97;4973568;28;20141;-85
2022/04/28 08:02:49;;;;;;;4.82;3.40;;;;;;;16.45;51.92;101991.06;4972142;28;20070;-85
2022/04/28 08:05:16;;;;;;;3.92;3.53;;;;;;;16.49;51.17;101982.75;4987945;28;20073;-85
2022/04/28 08:07:44;;;;;;;3.90;3.50;;;;;;;16.76;50.25;102006.16;4973395;28;20059;-84
2022/04/28 08:10:12;;;;;;;3.67;3.38;;;;;;;16.75;51.17;102023.22;4971883;28;20043;-85
2022/04/28 08:12:39;;;;;;;4.45;4.05;;;;;;;16.55;50.30;101972.28;4972621;28;20047;-84
2022/04/28 08:15:14;;;;;;;4.10;3.70;;;;;;;16.78;50.78;101999.69;4972519;28;20050;-83
2022/04/28 08:17:41;;;;;;;4.45;3.40;;;;;;;16.70;49.06;101964.69;4971544;28;20055;-84
2022/04/28 08:20:11;;;;;;;5.93;3.00;;;;;;;17.00;48.82;102003.91;4968600;28;20136;-85
2022/04/28 08:22:39;;;;;;;3.63;3.33;;;;;;;16.99;48.51;101980.75;4952320;28;20080;-85
2022/04/28 08:25:06;;;;;;;4.50;4.10;;;;;;;17.27;48.37;102005.78;4952208;28;20097;-85
2022/04/28 08:27:33;;;;;;;4.53;3.78;;;;;;;17.23;48.77;101999.06;4957709;28;20058;-83
2022/04/28 08:29:59;;;;;;;4.32;3.92;;;;;;;16.81;48.49;101948.44;4961167;28;20218;-82
2022/04/28 08:32:26;;;;;;;3.33;3.08;;;;;;;17.43;48.38;102010.56;4959246;28;20116;-82
2022/04/28 08:34:53;;;;;;;6.65;4.07;;;;;;;16.41;48.57;101841.44;4954038;28;20071;-84
2022/04/28 08:37:20;;;;;;;3.40;3.10;;;;;;;16.52;49.05;101848.44;4953951;28;20047;-84
2022/04/28 08:39:49;;;;;;;3.40;3.03;;;;;;;16.66;48.69;101872.13;4954111;28;20050;-83
2022/04/28 08:42:18;;;;;;;3.63;3.30;;;;;;;17.09;46.88;101922.53;4952955;28;20062;-84
2022/04/28 08:44:45;;;;;;;3.85;3.40;;;;;;;17.32;46.87;101924.84;4953578;28;20056;-84
2022/04/28 08:47:12;;;;;;;5.35;4.30;;;;;;;17.10;47.20;101891.19;4953040;28;20051;-84
2022/04/28 08:49:42;;;;;;;4.88;3.72;;;;;;;17.18;47.22;101909.22;4958246;28;20059;-85
2022/04/28 08:52:11;;;;;;;4.57;3.45;;;;;;;17.86;46.66;102013.63;4956828;28;20417;-84
2022/04/28 08:54:40;;;;;;;5.05;3.88;;;;;;;16.95;47.82;101857.78;4953546;28;20047;-84
2022/04/28 08:57:07;;;;;;;4.15;3.58;;;;;;;17.90;47.25;101990.84;4953582;28;20418;-84
2022/04/28 08:59:34;;;;;;;4.72;3.97;;;;;;;18.01;46.79;102009.44;4953984;28;20047;-84
2022/04/28 09:02:00;;;;;;;4.10;3.80;;;;;;;18.12;46.49;102014.59;4954005;28;20055;-84
2022/04/28 09:04:28;;;;;;;3.67;3.38;;;;;;;18.05;45.50;102004.59;4953580;28;20497;-85
2022/04/28 09:06:57;;;;;;;5.72;3.88;;;;;;;18.21;45.23;102009.31;4952876;28;20285;-84
2022/04/28 09:09:26;;;;;;;4.72;3.78;;;;;;;18.51;44.59;102026.91;4952045;28;20070;-83
2022/04/28 09:11:57;;;;;;;4.35;3.70;;;;;;;18.46;43.98;102015.78;4952004;28;20062;-85
2022/04/28 09:14:25;;;;;;;5.50;4.00;;;;;;;18.44;44.15;101989.03;4952059;28;20146;-86
2022/04/28 09:17:09;;;;;;;4.13;3.60;;;;;;;18.46;43.84;101992.41;4953595;28;20066;-85
2022/04/28 09:19:39;;;;;;;4.47;3.60;;;;;;;18.61;44.19;102024.13;4952804;28;20059;-85
2022/04/28 09:22:13;;;;;;;3.83;3.53;;;;;;;18.75;43.21;102013.66;4951878;28;20048;-84
2022/04/28 09:24:44;;;;;;;4.13;3.72;;;;;;;18.91;42.57;102022.91;4952583;28;20051;-85
2022/04/28 09:27:13;;;;;;;4.10;3.80;;;;;;;18.91;43.62;102023.75;4965432;28;20390;-82
2022/04/28 09:29:40;;;;;;;4.65;3.65;;;;;;;19.03;43.32;102015.41;4967682;28;20074;-84
2022/04/28 09:32:12;;;;;;;5.30;4.25;;;;;;;19.25;41.96;102009.53;4969020;28;20138;-84
2022/04/28 09:35:11;;;;;;;7.10;3.38;;;;;;;18.99;40.93;101967.28;4965440;28;20047;-86
2022/04/28 09:37:38;;;;;;;3.95;3.63;;;;;;;19.23;42.34;101994.53;4958126;28;20050;-85
2022/04/28 09:42:51;;;;;;;4.20;3.53;;;;;;;19.59;37.89;102017.59;4972242;28;20499;-84
2022/04/28 09:45:22;;;;;;;8.63;4.25;;;;;;;19.45;39.86;101996.66;4971106;28;20061;-85
2022/04/28 09:48:05;;;;;;;5.18;3.53;;;;;;;19.74;40.74;102009.78;4971041;28;20055;-85
2022/04/28 09:50:32;;;;;;;3.97;3.58;;;;;;;19.77;39.59;102009.44;4972626;28;20497;-84
2022/04/28 09:53:05;;;;;;;3.65;3.22;;;;;;;19.49;39.08;101937.94;4972740;28;20051;-84
2022/04/28 09:55:42;;;;;;;3.77;3.33;;;;;;;19.25;39.83;101909.03;4971233;28;20050;-84
2022/04/28 09:58:13;;;;;;;3.95;3.55;;;;;;;19.45;40.76;101953.56;4972514;28;20302;-85
2022/04/28 10:00:40;;;;;;;8.25;5.15;;;;;;;20.12;40.82;102010.22;4972449;28;20046;-86
2022/04/28 10:03:09;;;;;;;5.00;3.25;;;;;;;18.94;38.82;101775.06;4970481;28;20059;-86
2022/04/28 10:05:37;;;;;;;4.20;2.97;;;;;;;20.22;39.13;101970.50;4986522;28;20523;-86
2022/04/28 10:08:05;;;;;;;3.63;3.00;;;;;;;19.29;37.90;101817.03;4970820;28;20054;-86
2022/04/28 10:10:35;;;;;;;2.85;2.65;;;;;;;19.45;39.43;101805.47;4971037;28;20082;-86
2022/04/28 10:13:01;;;;;;;5.82;3.70;;;;;;;19.42;39.54;101774.31;4971213;28;20564;-86
2022/04/28 10:15:33;;;;;;;4.07;3.33;;;;;;;20.40;40.25;101920.94;4973231;28;20069;-85
2022/04/28 10:18:09;;;;;;;5.75;2.65;;;;;;;19.79;39.41;101770.34;4977223;28;20106;-85
2022/04/28 10:20:45;;;;;;;2.95;2.42;;;;;;;20.33;38.91;101852.50;4960836;28;20048;-85
2022/04/28 10:34:58;;;;;;;5.40;2.72;;;;;;;21.96;37.14;101981.59;4933419;29;20048;-86
2022/04/28 10:37:36;;;;;;;3.80;3.00;;;;;;;21.90;37.42;101968.81;4947742;28;20047;-85
2022/04/28 10:40:04;;;;;;;3.08;2.70;;;;;;;22.00;36.88;101946.13;4947971;28;20429;-85
2022/04/28 10:42:34;;;;;;;3.03;2.55;;;;;;;22.23;36.94;101976.72;4933393;29;20050;-86
2022/04/28 10:45:04;;;;;;;4.38;3.20;;;;;;;22.19;37.26;101960.00;4951289;28;20056;-85
2022/04/28 10:47:41;;;;;;;3.00;2.13;;;;;;;22.59;35.83;101976.09;4935597;29;20098;-83
2022/04/28 10:50:25;;;;;;;4.28;2.50;;;;;;;21.59;35.40;101838.25;4949279;28;20051;-86
2022/04/28 10:53:02;;;;;;;3.03;2.72;;;;;;;21.58;35.79;101805.00;4932694;29;20063;-85
2022/04/28 10:55:39;;;;;;;3.72;2.75;;;;;;;22.60;35.54;101981.34;4933808;29;20411;-85
2022/04/28 10:58:21;;;;;;;4.05;2.53;;;;;;;21.77;35.76;101844.19;4933433;29;20058;-85
2022/04/28 11:00:59;;;;;;;5.90;2.63;;;;;;;21.94;35.89;101867.41;4938006;28;20126;-82
2022/04/28 11:03:51;;;;;;;2.35;2.15;;;;;;;22.78;35.65;101970.19;4956769;28;20071;-84
2022/04/28 11:06:38;;;;;;;3.08;2.70;;;;;;;22.37;36.06;101883.97;4971414;28;20074;-84
2022/04/28 11:09:08;;;;;;;2.85;2.65;;;;;;;22.92;35.79;101973.09;4974959;28;20062;-84
2022/04/28 11:12:12;;;;;;;2.72;2.53;;;;;;;23.08;36.43;101956.69;4966531;28;20123;-84
2022/04/28 11:15:13;;;;;;;2.80;2.60;;;;;;;22.32;36.14;101780.88;4966942;28;20075;-84
2022/04/28 11:17:44;;;;;;;3.08;2.78;;;;;;;22.19;34.84;101767.13;4967949;28;20063;-85
2022/04/28 11:20:13;;;;;;;4.10;2.67;;;;;;;23.46;35.72;101975.56;4952561;28;20698;-85
2022/04/28 11:22:43;;;;;;;2.83;2.63;;;;;;;23.12;36.36;101879.47;4951658;28;20111;-84
2022/04/28 11:25:14;;;;;;;8.50;2.50;;;;;;;23.49;36.19;101918.25;4951793;28;20406;-84
2022/04/28 11:27:41;;;;;;;3.53;2.75;;;;;;;23.43;35.30;101897.38;4952851;28;20055;-85
2022/04/28 11:30:14;;;;;;;2.45;2.25;;;;;;;23.62;34.36;101902.19;4951235;28;20106;-85
2022/04/28 11:32:50;;;;;;;2.78;2.28;;;;;;;23.49;34.88;101888.47;4951248;28;20134;-85
2022/04/28 11:35:17;;;;;;;3.40;2.20;;;;;;;23.24;34.90;101845.44;4966788;28;20051;-84
2022/04/28 11:37:53;;;;;;;2.08;1.88;;;;;;;24.07;34.47;101954.41;4951109;28;20047;-84
2022/04/28 11:40:23;;;;;;;2.58;2.38;;;;;;;23.71;33.73;101883.91;4950730;28;20336;-84
2022/04/28 11:42:57;;;;;;;2.72;2.53;;;;;;;23.92;33.77;101923.78;4951112;29;20057;-84
2022/04/28 11:45:25;;;;;;;2.80;2.40;;;;;;;23.98;33.78;101889.63;4950894;28;20098;-86
2022/04/28 11:47:56;;;;;;;3.80;1.95;;;;;;;24.24;33.69;101927.84;4966321;28;20071;-85
2022/04/28 11:50:26;;;;;;;;;;;;;;;24.58;33.49;101960.75;4952549;28;20110;-85
2022/04/28 11:52:59;;;;;;;5.97;2.20;;;;;;;24.87;33.13;101957.84;4951072;28;19922;-84
2022/04/28 11:55:28;;;;;;;2.70;2.20;;;;;;;24.37;33.36;101897.31;4967210;28;20716;-85
2022/04/28 11:58:00;;;;;;;2.13;2.00;;;;;;;24.75;33.55;101940.41;4951175;28;20058;-83
2022/04/28 12:00:27;;;;;;;5.05;2.63;;;;;;;25.05;32.63;101934.75;4972025;28;20090;-86
2022/04/28 12:02:55;;;;;;;4.03;2.13;;;;;;;25.14;32.54;101949.84;4958414;28;20059;-84
2022/04/28 12:05:26;;;;;;;3.42;2.90;;;;;;;25.07;31.75;101949.81;4956157;28;20077;-85